Historyczne dane pomiarowe

Dodano dane terminowe – wersja testowa.

Dane z okresu 1951-2019

Wersja bazy: 1.34 [2019-03-16, lista zmian], aktualizacja planowana na 2019-04-15

Dane meteo z obszaru Polski uzyskane na podstawie danych udostępnionych przez Instytut Meteorologii i Gospodarki Wodnej – Państwowy Instytut Badawczy.

 

Wybierz Datę:    

       

TemperaturaWilgotnośćWiatrCiśnienieOpadyŚniegCzas trwania zjawisk
 Stacja t tx tn tng RH VA  wxwx mslp ppp RRR   cm mm wxwxwxwxwxwxwx
1987-08-14 14.7 22.6-- 81.5- 5.3 1.3---- 0.0------------
1987-08-13 14.4 20.1-- 71.0- 2.0 2.3---- 0.0------------
1987-08-12 13.2 18.8-- 72.0- 2.3 4.7---- 1.0------------
1987-08-11 14.8 18.8-- 78.3- 3.3 5.3---- 1.8------------
1987-08-10 15.7 21.8-- 84.5- 3.7 1.3---- 0.2------------
1987-08-09 17.4 25.6-- 68.5- 3.0 3.0---- 0.0------------
1987-08-08 15.2 21.5-- 72.8- 0.7 1.0---- 0.0------------
1987-08-07 12.9 18.3-- 73.0- 3.3 0.0---- 0.4------------
1987-08-06 12.3 16.7-- 77.8- 6.3 4.7---- 1.0------------
1987-08-05 13.6 18.7-- 78.3- 5.0 0.0---- 0.0------------
1987-08-04 16.1 20.6-- 81.3- 4.3 0.7---- 0.2------------
1987-08-03 16.0 20.8-- 80.5- 2.7 1.3---- 0.0------------
1987-08-02 16.2 20.1-- 76.3- 5.7 0.7---- 2.9------------
1987-08-01 15.8 23.2-- 75.0- 2.0 0.0---- 1.0------------
1987-07-31 17.0 22.2-- 84.5- 8.0 2.3---- 1.6------------
1987-07-30 17.7 25.5-- 82.3- 0.7 0.3---- 1.0------------
1987-07-29 15.6 20.6-- 73.3- 2.0 0.0---- 0.1------------
1987-07-28 14.7 17.8-- 77.8- 7.0 3.0---- 2.5------------
1987-07-27 13.9 18.7-- 68.0- 2.3 4.7---- 1.1------------
1987-07-26 14.0 20.1-- 90.0- 8.0 0.0---- 1.6------------
1987-07-25 20.0 25.8-- 83.8- 0.7 2.3---- 2.1------------
1987-07-24 21.4 28.0-- 79.3- 3.0 3.7---- 1.1------------
1987-07-23 21.3 27.6-- 79.0- 0.7 0.0---- 10.0------------
1987-07-22 20.7 24.8-- 82.8- 4.0 5.3---- 0.0------------
1987-07-21 21.1 27.0-- 76.5- 0.3 3.0---- 0.0------------
1987-07-20 21.4 26.0-- 80.8- 2.0 4.7---- 0.0------------
1987-07-19 23.7 30.0-- 82.3- 0.3 5.3---- 0.8------------
1987-07-18 24.5 30.5-- 76.0- 0.0 0.0---- 0.0------------
1987-07-17 22.7 29.8-- 77.5- 4.3 1.3---- 0.0------------
1987-07-16 19.5 27.4-- 80.8- 0.3 0.7---- 0.8------------
1987-07-15 17.3 23.6-- 75.5- 0.0 2.7---- 0.0------------
1987-07-14 17.7 21.6-- 71.8- 0.3 1.3---- 0.0------------
1987-07-13 20.2 25.7-- 78.3- 2.3 2.0---- 0.0------------
1987-07-12 22.6 30.0-- 63.3- 1.3 1.7---- 12.6------------
1987-07-11 18.1 25.4-- 73.5- 0.0 0.0---- 0.0------------
1987-07-10 15.5 20.4-- 77.0- 3.7 2.0---- 0.0------------
1987-07-09 18.0 25.5-- 82.8- 6.7 2.3---- 8.0------------
1987-07-08 21.9 30.5-- 69.0- 0.3 0.7---- 0.0------------
1987-07-07 18.3 25.6-- 70.8- 0.0 0.7---- 0.0------------
1987-07-06 17.9 23.1-- 70.3- 0.0 1.3---- 0.0------------
1987-07-05 16.8 21.1-- 81.0- 3.7 3.0---- 0.0------------
1987-07-04 20.0 24.1-- 77.0- 4.7 0.0---- 0.5------------
1987-07-03 19.7 22.8-- 79.8- 7.0 0.7---- 0.0------------
1987-07-02 21.5 27.8-- 90.5- 7.0 1.3---- 0.0------------
1987-07-01 25.7 31.0-- 75.3- 0.3 0.0---- 0.0------------
1987-06-30 24.1 29.5-- 73.8- 0.0 1.3---- 0.0------------
1987-06-29 22.0 26.5-- 82.5- 3.3 1.3---- 0.0------------
1987-06-28 19.9 25.5-- 73.0- 2.0 1.3---- 0.0------------
1987-06-27 19.2 23.6-- 83.0- 3.0 0.3---- 3.0------------
1987-06-26 17.7 26.0-- 69.5- 0.3 2.3---- 2.4------------
1987-06-25 15.7 20.1-- 85.3- 5.7 3.7---- 2.0------------
1987-06-24 18.2 22.3-- 69.5- 2.0 1.3---- 0.5------------
1987-06-23 17.0 21.1-- 79.8- 6.7 0.0---- 0.0------------
1987-06-22 17.1 23.1-- 86.0- 5.0 3.0---- 0.0------------
1987-06-21 17.0 24.6-- 82.0- 3.3 2.3---- 0.0------------
1987-06-20 15.9 22.3-- 78.5- 1.3 2.7---- 0.0------------
1987-06-19 13.7 18.6-- 76.5- 0.3 0.0---- 0.0------------
1987-06-18 11.9 17.1-- 81.8- 5.0 3.0---- 1.0------------
1987-06-17 11.4 14.7-- 89.3- 4.7 1.3---- 5.0------------
1987-06-16 16.3 27.4-- 81.3- 8.0 4.0---- 5.9------------
1351.0 ms

 

Źródłem pochodzenia danych jest Instytut Meteorologii i Gospodarki Wodnej – Państwowy Instytut Badawczy. Dane Instytutu Meteorologii i Gospodarki Wodnej – Państwowego Instytutu Badawczego zostały przetworzone.

Dane źródłowe można odnaleźć na stronie https://dane.imgw.pl